Time;durP1;ratioP1;P1;durP2;ratioP2;P2;SDS_P1;SDS_P2;PMS_P1;PMS_P2;Temp;Humidity;BMP_temperature;BMP_pressure;BME280_temperature;BME280_humidity;BME280_pressure;Samples;Min_cycle;Max_cycle;Signal;HPM_P1;HPM_P2
2020/12/07 00:00:25;;;;;;;80.85;41.85;;;;;;;;;;5088728;28;20237;-48
2020/12/07 00:03:10;;;;;;;54.42;32.33;;;;;;;;;;5089881;28;20223;-53
2020/12/07 00:05:58;;;;;;;99.88;56.63;;;;;;;;;;5092038;28;20319;-55
2020/12/07 00:08:25;;;;;;;67.60;37.30;;;;;;;;;;5076511;28;20244;-58
2020/12/07 00:10:54;;;;;;;53.10;32.40;;;;;;;;;;5077015;28;20240;-58
2020/12/07 00:13:24;;;;;;;77.63;46.30;;;;;;;;;;5076824;28;20205;-51
2020/12/07 00:15:51;;;;;;;77.15;41.70;;;;;;;;;;5076576;28;20230;-58
2020/12/07 00:18:49;;;;;;;68.60;35.15;;;;;;;;;;5076550;28;20236;-55
2020/12/07 00:21:16;;;;;;;84.22;44.88;;;;;;;;;;5077182;28;20221;-56
2020/12/07 00:23:47;;;;;;;166.52;96.70;;;;;;;;;;5076518;28;20218;-55
2020/12/07 00:26:19;;;;;;;61.92;35.63;;;;;;;;;;5077124;28;20203;-55
2020/12/07 00:28:47;;;;;;;72.65;45.08;;;;;;;;;;5076832;28;20204;-57
2020/12/07 00:31:15;;;;;;;55.40;36.70;;;;;;;;;;5076839;28;20194;-54
2020/12/07 00:34:05;;;;;;;56.45;31.25;;;;;;;;;;5076811;28;20200;-57
2020/12/07 00:36:32;;;;;;;34.13;23.65;;;;;;;;;;5076527;28;20214;-59
2020/12/07 00:38:58;;;;;;;51.78;33.15;;;;;;;;;;5076018;28;20197;-47
2020/12/07 00:44:34;;;;;;;75.97;46.47;;;;;;;;;;5091584;28;20284;-56
2020/12/07 00:47:05;;;;;;;43.65;27.52;;;;;;;;;;5096777;28;20236;-52
2020/12/07 00:49:55;;;;;;;32.53;22.77;;;;;;;;;;5096908;28;20216;-50
2020/12/07 00:52:26;;;;;;;97.15;58.70;;;;;;;;;;5094219;28;20267;-52
2020/12/07 00:54:53;;;;;;;41.67;26.70;;;;;;;;;;5096206;28;20230;-47
2020/12/07 00:57:36;;;;;;;61.75;37.28;;;;;;;;;;5096674;28;20295;-48
2020/12/07 01:00:07;;;;;;;67.38;42.90;;;;;;;;;;5096341;28;20232;-58
2020/12/07 01:02:34;;;;;;;48.50;31.75;;;;;;;;;;5096360;28;20192;-52
2020/12/07 01:05:18;;;;;;;76.72;50.50;;;;;;;;;;5096056;28;20251;-52
2020/12/07 01:07:45;;;;;;;96.75;58.15;;;;;;;;;;5095509;28;20200;-53
2020/12/07 01:10:13;;;;;;;99.03;62.58;;;;;;;;;;5095268;28;20204;-53
2020/12/07 01:13:16;;;;;;;38.28;25.75;;;;;;;;;;5095880;28;20199;-54
2020/12/07 01:15:44;;;;;;;38.72;26.27;;;;;;;;;;5095295;28;20225;-46
2020/12/07 01:18:11;;;;;;;40.60;27.52;;;;;;;;;;5095436;28;20368;-53
2020/12/07 01:20:40;;;;;;;131.15;81.70;;;;;;;;;;5095694;28;20229;-51
2020/12/07 01:23:07;;;;;;;31.52;22.58;;;;;;;;;;5095159;28;20215;-55
2020/12/07 01:25:34;;;;;;;29.50;21.92;;;;;;;;;;5095271;28;20204;-54
2020/12/07 01:28:00;;;;;;;44.25;32.85;;;;;;;;;;5095658;28;20235;-49
2020/12/07 01:30:28;;;;;;;69.35;49.50;;;;;;;;;;5096035;28;20212;-55
2020/12/07 01:32:55;;;;;;;29.83;22.10;;;;;;;;;;5095446;28;20241;-52
2020/12/07 01:35:22;;;;;;;52.92;36.80;;;;;;;;;;5095696;28;20207;-53
2020/12/07 01:37:52;;;;;;;58.20;43.08;;;;;;;;;;5095776;28;20200;-48
2020/12/07 01:40:19;;;;;;;33.40;24.90;;;;;;;;;;5095394;28;20251;-52
2020/12/07 01:42:46;;;;;;;109.82;70.00;;;;;;;;;;5095341;28;20196;-50
2020/12/07 01:45:42;;;;;;;39.80;27.95;;;;;;;;;;5095107;28;20222;-50
2020/12/07 01:48:10;;;;;;;40.17;27.83;;;;;;;;;;5095335;28;20209;-51
2020/12/07 01:50:37;;;;;;;47.83;33.47;;;;;;;;;;5095482;28;20204;-54
2020/12/07 01:53:34;;;;;;;36.88;26.10;;;;;;;;;;5095708;28;20221;-52
2020/12/07 01:56:02;;;;;;;83.10;50.10;;;;;;;;;;5093322;28;20220;-52
2020/12/07 01:58:29;;;;;;;42.63;29.15;;;;;;;;;;5099274;28;20216;-47
2020/12/07 02:00:57;;;;;;;152.57;96.53;;;;;;;;;;5099096;28;20255;-55
2020/12/07 02:03:24;;;;;;;141.18;93.40;;;;;;;;;;5099283;28;20197;-52
2020/12/07 02:05:51;;;;;;;51.35;35.25;;;;;;;;;;5099051;28;20181;-53
2020/12/07 02:08:27;;;;;;;34.42;23.90;;;;;;;;;;5099039;28;20215;-47
2020/12/07 02:10:54;;;;;;;32.75;24.13;;;;;;;;;;5099055;28;20230;-51
2020/12/07 02:13:21;;;;;;;72.85;48.97;;;;;;;;;;5098999;28;20227;-49
2020/12/07 02:15:48;;;;;;;93.93;60.88;;;;;;;;;;5098835;28;20194;-50
2020/12/07 02:18:14;;;;;;;73.07;50.63;;;;;;;;;;5098713;28;20226;-51
2020/12/07 02:23:46;;;;;;;77.82;47.97;;;;;;;;;;5098568;28;20180;-50
2020/12/07 02:26:13;;;;;;;40.08;27.92;;;;;;;;;;5098226;28;20212;-49
2020/12/07 02:28:40;;;;;;;31.27;22.15;;;;;;;;;;5097665;28;20311;-54
2020/12/07 02:31:06;;;;;;;36.08;25.65;;;;;;;;;;5097796;28;20216;-57
2020/12/07 02:33:33;;;;;;;33.10;24.15;;;;;;;;;;5098397;28;20193;-54
2020/12/07 02:36:17;;;;;;;56.33;38.20;;;;;;;;;;5098507;28;20208;-54
2020/12/07 02:38:43;;;;;;;61.65;41.10;;;;;;;;;;5099007;28;20197;-58
2020/12/07 02:41:11;;;;;;;62.40;42.28;;;;;;;;;;5099006;28;20239;-55
2020/12/07 02:43:56;;;;;;;58.97;39.10;;;;;;;;;;5099080;28;20196;-54
2020/12/07 02:46:22;;;;;;;66.35;39.45;;;;;;;;;;5099173;28;20193;-55
2020/12/07 02:48:49;;;;;;;60.40;40.78;;;;;;;;;;5098747;28;20235;-53
2020/12/07 02:51:21;;;;;;;64.63;45.35;;;;;;;;;;5098157;28;20196;-53
2020/12/07 02:53:48;;;;;;;41.65;28.45;;;;;;;;;;5097916;28;20370;-49
2020/12/07 02:56:16;;;;;;;50.00;32.28;;;;;;;;;;5098042;28;20263;-52
2020/12/07 03:01:47;;;;;;;34.78;22.38;;;;;;;;;;5097300;28;20224;-52
2020/12/07 03:04:14;;;;;;;30.73;21.60;;;;;;;;;;5097956;28;20232;-59
2020/12/07 03:06:43;;;;;;;40.90;30.13;;;;;;;;;;5097172;28;20382;-47
2020/12/07 03:09:10;;;;;;;40.47;27.60;;;;;;;;;;5097119;28;20246;-52
2020/12/07 03:11:38;;;;;;;36.83;23.83;;;;;;;;;;5097266;28;20239;-55
2020/12/07 03:14:05;;;;;;;31.00;22.85;;;;;;;;;;5097524;28;20234;-50
2020/12/07 03:16:32;;;;;;;31.13;22.13;;;;;;;;;;5097527;28;20213;-53
2020/12/07 03:19:01;;;;;;;56.03;39.85;;;;;;;;;;5097319;28;20196;-50
2020/12/07 03:21:42;;;;;;;60.72;40.97;;;;;;;;;;5096930;28;20300;-51
2020/12/07 03:24:09;;;;;;;42.22;28.20;;;;;;;;;;5097180;28;20223;-53
2020/12/07 03:26:36;;;;;;;53.53;33.15;;;;;;;;;;5097331;28;20216;-53
2020/12/07 03:29:18;;;;;;;51.80;32.17;;;;;;;;;;5097389;28;20314;-49
2020/12/07 03:31:45;;;;;;;40.88;27.83;;;;;;;;;;5096889;28;20223;-51
2020/12/07 03:34:12;;;;;;;39.72;27.98;;;;;;;;;;5097066;28;20213;-47
2020/12/07 03:37:07;;;;;;;33.72;22.90;;;;;;;;;;5097479;28;20217;-50
2020/12/07 03:39:36;;;;;;;47.30;29.63;;;;;;;;;;5097373;28;20208;-49
2020/12/07 03:42:02;;;;;;;49.00;30.55;;;;;;;;;;5097119;28;20235;-54
2020/12/07 03:44:33;;;;;;;43.28;30.77;;;;;;;;;;5097188;28;20277;-48
2020/12/07 03:47:00;;;;;;;36.95;25.33;;;;;;;;;;5097149;28;20220;-48
2020/12/07 03:49:26;;;;;;;40.22;24.42;;;;;;;;;;5096972;28;20220;-58
2020/12/07 03:52:01;;;;;;;49.20;32.03;;;;;;;;;;5096754;28;20222;-49
2020/12/07 03:54:27;;;;;;;37.03;25.30;;;;;;;;;;5096142;28;20196;-52
2020/12/07 03:56:54;;;;;;;49.05;33.25;;;;;;;;;;5096612;28;20184;-53
2020/12/07 03:59:33;;;;;;;36.33;25.42;;;;;;;;;;5096749;28;20219;-47
2020/12/07 04:02:01;;;;;;;38.20;25.17;;;;;;;;;;5096530;28;20219;-49
2020/12/07 04:04:35;;;;;;;47.80;30.90;;;;;;;;;;5096506;28;20201;-51
2020/12/07 04:07:11;;;;;;;36.42;23.88;;;;;;;;;;5080740;28;20232;-56
2020/12/07 04:09:38;;;;;;;42.40;28.35;;;;;;;;;;5096351;28;20235;-52
2020/12/07 04:12:05;;;;;;;38.28;23.27;;;;;;;;;;5096683;28;20193;-49
2020/12/07 04:14:34;;;;;;;44.30;29.38;;;;;;;;;;5096271;28;20236;-52
2020/12/07 04:17:03;;;;;;;44.33;27.48;;;;;;;;;;5096739;28;20196;-57
2020/12/07 04:19:30;;;;;;;35.40;23.00;;;;;;;;;;5095830;28;20201;-54
2020/12/07 04:21:57;;;;;;;43.25;30.65;;;;;;;;;;5096146;28;20235;-50
2020/12/07 04:24:25;;;;;;;48.17;29.65;;;;;;;;;;5095858;28;20246;-48
2020/12/07 04:27:00;;;;;;;53.20;33.28;;;;;;;;;;5096100;28;20211;-54
2020/12/07 04:29:27;;;;;;;61.25;39.70;;;;;;;;;;5096769;28;20391;-50
2020/12/07 04:31:56;;;;;;;43.28;27.95;;;;;;;;;;5095972;28;20208;-51
2020/12/07 04:34:32;;;;;;;51.53;33.17;;;;;;;;;;5096738;28;20239;-56
2020/12/07 04:37:02;;;;;;;44.38;29.45;;;;;;;;;;5094716;28;20226;-53
2020/12/07 04:39:28;;;;;;;46.55;31.52;;;;;;;;;;5096450;28;20204;-57
2020/12/07 04:42:14;;;;;;;59.97;36.20;;;;;;;;;;5096407;28;20262;-57
2020/12/07 04:44:41;;;;;;;41.47;28.08;;;;;;;;;;5095998;28;20205;-56
2020/12/07 04:47:09;;;;;;;58.85;37.78;;;;;;;;;;5096153;28;20193;-56
2020/12/07 04:49:43;;;;;;;61.22;40.03;;;;;;;;;;5096100;28;20267;-53
2020/12/07 04:52:11;;;;;;;52.70;35.45;;;;;;;;;;5095941;28;20266;-55
2020/12/07 04:54:41;;;;;;;58.97;36.20;;;;;;;;;;5095945;28;20261;-54
2020/12/07 04:57:23;;;;;;;48.42;32.75;;;;;;;;;;5095245;28;20222;-50
2020/12/07 04:59:51;;;;;;;57.85;40.28;;;;;;;;;;5094101;28;20225;-51
2020/12/07 05:02:22;;;;;;;48.55;30.92;;;;;;;;;;5095608;28;20278;-57
2020/12/07 05:04:49;;;;;;;51.60;33.80;;;;;;;;;;5096250;28;20201;-57
2020/12/07 05:07:18;;;;;;;46.28;31.90;;;;;;;;;;5095871;28;20201;-52
2020/12/07 05:09:47;;;;;;;47.97;32.38;;;;;;;;;;5095842;28;20231;-55
2020/12/07 05:12:22;;;;;;;49.85;34.95;;;;;;;;;;5096169;28;20223;-52
2020/12/07 05:14:52;;;;;;;43.67;29.73;;;;;;;;;;5095221;28;20195;-54
2020/12/07 05:17:34;;;;;;;44.60;29.88;;;;;;;;;;5096248;28;20201;-55
2020/12/07 05:20:01;;;;;;;37.88;24.40;;;;;;;;;;5088842;28;20220;-57
2020/12/07 05:22:31;;;;;;;51.22;30.73;;;;;;;;;;5095963;28;20229;-59
2020/12/07 05:25:10;;;;;;;43.17;29.83;;;;;;;;;;5095275;28;20189;-55
2020/12/07 05:27:44;;;;;;;39.38;26.52;;;;;;;;;;5095025;28;20211;-56
2020/12/07 05:30:19;;;;;;;47.35;30.98;;;;;;;;;;5094673;28;20268;-55
2020/12/07 05:32:58;;;;;;;40.58;23.52;;;;;;;;;;5099924;28;20210;-51
2020/12/07 05:35:25;;;;;;;37.67;23.90;;;;;;;;;;5099923;28;20201;-50
2020/12/07 05:38:09;;;;;;;41.53;28.65;;;;;;;;;;5100086;28;20257;-55
2020/12/07 05:40:40;;;;;;;37.70;25.67;;;;;;;;;;5099060;28;20224;-55
2020/12/07 05:43:07;;;;;;;41.17;26.55;;;;;;;;;;5079725;28;20255;-56
2020/12/07 05:45:33;;;;;;;34.47;24.42;;;;;;;;;;5078679;28;20185;-51
2020/12/07 05:48:19;;;;;;;34.45;23.02;;;;;;;;;;5079035;28;20201;-56
2020/12/07 05:50:51;;;;;;;34.63;22.70;;;;;;;;;;5097726;28;20205;-56
2020/12/07 05:53:19;;;;;;;40.10;26.75;;;;;;;;;;5078818;28;20205;-53
2020/12/07 05:55:49;;;;;;;34.78;23.98;;;;;;;;;;5079258;28;20224;-58
2020/12/07 05:58:22;;;;;;;36.97;25.88;;;;;;;;;;5084455;28;20235;-58
2020/12/07 06:00:52;;;;;;;45.55;27.75;;;;;;;;;;5098175;28;20283;-58
2020/12/07 06:03:22;;;;;;;43.38;26.13;;;;;;;;;;5098247;28;20200;-52
2020/12/07 06:06:04;;;;;;;34.67;26.00;;;;;;;;;;5091923;28;20212;-54
2020/12/07 06:08:54;;;;;;;35.28;24.08;;;;;;;;;;5098686;28;20225;-53
2020/12/07 06:11:21;;;;;;;36.10;24.80;;;;;;;;;;5098415;28;20267;-54
2020/12/07 06:13:48;;;;;;;35.65;25.92;;;;;;;;;;5098750;28;20240;-56
2020/12/07 06:16:41;;;;;;;31.52;22.55;;;;;;;;;;5098843;28;20197;-53
2020/12/07 06:19:15;;;;;;;40.33;28.23;;;;;;;;;;5095972;28;20229;-54
2020/12/07 06:21:46;;;;;;;33.90;22.40;;;;;;;;;;5080541;28;20404;-50
2020/12/07 06:24:16;;;;;;;33.05;22.63;;;;;;;;;;5097803;28;20196;-59
2020/12/07 06:26:43;;;;;;;35.08;23.58;;;;;;;;;;5098045;28;20250;-60
2020/12/07 06:29:18;;;;;;;32.88;21.25;;;;;;;;;;5097919;28;20216;-59
2020/12/07 06:32:04;;;;;;;28.42;19.10;;;;;;;;;;5097574;28;20208;-56
2020/12/07 06:34:34;;;;;;;32.75;21.52;;;;;;;;;;5097811;28;20201;-56
2020/12/07 06:37:09;;;;;;;30.67;19.67;;;;;;;;;;5097263;28;20249;-55
2020/12/07 06:42:47;;;;;;;31.65;22.33;;;;;;;;;;5094452;28;20246;-52
2020/12/07 06:45:44;;;;;;;29.95;20.02;;;;;;;;;;5073236;28;20228;-55
2020/12/07 06:48:26;;;;;;;35.17;23.85;;;;;;;;;;5077465;28;20219;-49
2020/12/07 06:51:11;;;;;;;37.60;22.50;;;;;;;;;;5088131;28;20214;-54
2020/12/07 06:53:47;;;;;;;29.75;20.90;;;;;;;;;;5092052;28;20185;-55
2020/12/07 06:56:17;;;;;;;37.13;26.15;;;;;;;;;;5078495;28;20197;-54
2020/12/07 06:58:48;;;;;;;31.38;21.25;;;;;;;;;;5096517;28;20216;-54
2020/12/07 07:01:16;;;;;;;34.55;22.70;;;;;;;;;;5094987;28;20225;-50
2020/12/07 07:04:18;;;;;;;30.35;21.85;;;;;;;;;;5097660;28;20201;-54
2020/12/07 07:06:48;;;;;;;36.50;23.58;;;;;;;;;;5095640;28;20274;-60
2020/12/07 07:09:16;;;;;;;32.50;20.38;;;;;;;;;;5079196;28;20311;-53
2020/12/07 07:11:54;;;;;;;35.75;20.85;;;;;;;;;;5083229;28;20309;-52
2020/12/07 07:14:25;;;;;;;31.60;21.55;;;;;;;;;;5092240;28;20228;-50
2020/12/07 07:16:57;;;;;;;39.20;27.55;;;;;;;;;;5077296;28;20182;-59
2020/12/07 07:19:24;;;;;;;40.78;26.30;;;;;;;;;;5076686;28;20215;-52
2020/12/07 07:21:52;;;;;;;32.67;21.85;;;;;;;;;;5084045;28;20225;-58
2020/12/07 07:24:24;;;;;;;32.28;20.20;;;;;;;;;;5097086;28;20228;-49
2020/12/07 07:30:10;;;;;;;34.47;23.85;;;;;;;;;;5052112;28;20181;-55
2020/12/07 07:32:40;;;;;;;39.78;22.50;;;;;;;;;;5077430;28;20194;-57
2020/12/07 07:35:16;;;;;;;37.80;23.13;;;;;;;;;;5081856;28;20193;-59
2020/12/07 07:37:43;;;;;;;30.58;21.70;;;;;;;;;;5084567;28;20247;-56
2020/12/07 07:40:14;;;;;;;33.15;20.38;;;;;;;;;;5097424;28;20213;-57
2020/12/07 07:42:52;;;;;;;38.08;20.42;;;;;;;;;;5094556;28;20234;-57
2020/12/07 07:48:20;;;;;;;25.70;17.27;;;;;;;;;;5094451;28;20196;-52
2020/12/07 07:51:14;;;;;;;26.85;17.85;;;;;;;;;;5097779;28;20189;-53
2020/12/07 08:16:58;;;;;;;29.45;16.42;;;;;;;;;;5081269;28;20210;-55
2020/12/07 08:20:07;;;;;;;30.80;17.02;;;;;;;;;;5096005;28;20181;-51
2020/12/07 08:22:34;;;;;;;32.72;17.75;;;;;;;;;;5087922;28;20277;-55
2020/12/07 08:25:05;;;;;;;27.88;16.88;;;;;;;;;;5078850;28;20355;-61
2020/12/07 08:27:58;;;;;;;26.90;15.75;;;;;;;;;;5096269;28;20266;-56
2020/12/07 08:30:31;;;;;;;27.60;17.25;;;;;;;;;;5087739;28;20186;-59
2020/12/07 08:33:10;;;;;;;22.02;14.18;;;;;;;;;;5094401;28;20447;-52
2020/12/07 08:35:37;;;;;;;17.23;13.07;;;;;;;;;;5096426;28;20209;-49
2020/12/07 08:38:04;;;;;;;21.42;14.77;;;;;;;;;;5096179;28;20270;-55
2020/12/07 08:40:31;;;;;;;19.58;13.45;;;;;;;;;;5095658;28;20211;-56
2020/12/07 08:42:59;;;;;;;22.98;14.40;;;;;;;;;;5095855;28;20604;-51
2020/12/07 08:45:26;;;;;;;22.00;13.63;;;;;;;;;;5095594;28;20233;-57
2020/12/07 08:48:10;;;;;;;25.77;15.18;;;;;;;;;;5095782;28;20197;-49
2020/12/07 08:50:36;;;;;;;21.67;14.75;;;;;;;;;;5094728;28;20201;-56
2020/12/07 08:53:04;;;;;;;23.35;14.93;;;;;;;;;;5095843;28;20222;-56
2020/12/07 08:55:37;;;;;;;20.52;13.07;;;;;;;;;;5095694;28;20185;-57
2020/12/07 08:58:04;;;;;;;19.05;13.63;;;;;;;;;;5090360;28;20199;-58
2020/12/07 09:00:31;;;;;;;21.35;14.13;;;;;;;;;;5094716;28;20231;-55
2020/12/07 09:02:58;;;;;;;24.35;17.10;;;;;;;;;;5095154;28;20220;-55
2020/12/07 09:05:25;;;;;;;21.10;12.70;;;;;;;;;;5093690;28;20268;-54
2020/12/07 09:08:00;;;;;;;16.98;12.07;;;;;;;;;;5095527;28;20207;-57
2020/12/07 09:10:27;;;;;;;16.48;10.57;;;;;;;;;;5094774;28;20198;-49
2020/12/07 09:12:53;;;;;;;16.35;12.57;;;;;;;;;;5095358;28;20260;-54
2020/12/07 09:15:25;;;;;;;17.55;12.50;;;;;;;;;;5096019;28;20224;-56
2020/12/07 09:17:53;;;;;;;17.90;9.30;;;;;;;;;;5093202;28;20351;-58
2020/12/07 09:20:21;;;;;;;13.20;10.02;;;;;;;;;;5093496;28;20205;-59
2020/12/07 09:22:48;;;;;;;13.80;8.95;;;;;;;;;;5094970;28;20228;-58
2020/12/07 09:25:15;;;;;;;14.93;9.55;;;;;;;;;;5095334;28;20234;-49
2020/12/07 09:27:49;;;;;;;13.50;9.20;;;;;;;;;;5095412;28;20228;-55
2020/12/07 09:30:17;;;;;;;14.23;7.90;;;;;;;;;;5095243;28;20216;-58
2020/12/07 09:32:43;;;;;;;12.40;7.55;;;;;;;;;;5095060;28;20214;-53
2020/12/07 09:35:13;;;;;;;12.93;7.47;;;;;;;;;;5095302;28;20371;-53
2020/12/07 09:37:39;;;;;;;10.75;7.60;;;;;;;;;;5094382;28;20216;-52
2020/12/07 09:40:13;;;;;;;12.57;7.97;;;;;;;;;;5094669;28;20453;-59
2020/12/07 09:42:40;;;;;;;9.23;6.72;;;;;;;;;;5095099;28;20250;-55
2020/12/07 09:45:09;;;;;;;9.05;6.25;;;;;;;;;;5095378;28;20212;-58
2020/12/07 09:47:41;;;;;;;15.45;6.47;;;;;;;;;;5095430;28;20218;-50
2020/12/07 09:50:15;;;;;;;9.07;5.80;;;;;;;;;;5094443;28;20232;-55
2020/12/07 09:52:42;;;;;;;12.32;6.57;;;;;;;;;;5095020;28;20200;-54
2020/12/07 09:55:09;;;;;;;11.07;6.22;;;;;;;;;;5094814;28;20233;-53
2020/12/07 09:57:36;;;;;;;7.60;6.45;;;;;;;;;;5094260;28;20201;-54
2020/12/07 10:00:12;;;;;;;12.02;6.18;;;;;;;;;;5095002;28;20223;-55
2020/12/07 10:02:39;;;;;;;8.90;6.00;;;;;;;;;;5095121;28;20231;-50
2020/12/07 10:05:05;;;;;;;7.75;5.65;;;;;;;;;;5095544;28;20197;-52
2020/12/07 10:07:52;;;;;;;9.98;6.53;;;;;;;;;;5095899;28;20209;-57
2020/12/07 10:10:20;;;;;;;9.73;6.53;;;;;;;;;;5095203;28;20197;-49
2020/12/07 10:12:47;;;;;;;9.85;6.65;;;;;;;;;;5094941;28;20427;-53
2020/12/07 10:15:24;;;;;;;9.15;6.43;;;;;;;;;;5095574;28;20261;-51
2020/12/07 10:17:51;;;;;;;17.10;9.55;;;;;;;;;;5093076;28;20243;-51
2020/12/07 10:20:18;;;;;;;17.67;12.15;;;;;;;;;;5098851;28;20272;-55
2020/12/07 10:23:13;;;;;;;9.35;6.43;;;;;;;;;;5097877;28;20558;-53
2020/12/07 10:25:49;;;;;;;7.90;4.90;;;;;;;;;;5088083;28;20234;-60
2020/12/07 10:28:15;;;;;;;9.30;6.75;;;;;;;;;;5098699;28;20187;-51
2020/12/07 10:30:42;;;;;;;9.00;6.30;;;;;;;;;;5097444;28;20203;-58
2020/12/07 10:33:09;;;;;;;8.93;5.90;;;;;;;;;;5097896;28;20197;-55
2020/12/07 10:35:47;;;;;;;10.52;5.88;;;;;;;;;;5097689;28;20231;-51
2020/12/07 10:38:14;;;;;;;17.58;12.05;;;;;;;;;;5097130;28;20197;-60
2020/12/07 10:40:41;;;;;;;25.52;18.25;;;;;;;;;;5097932;28;20243;-55
2020/12/07 10:43:11;;;;;;;19.20;13.63;;;;;;;;;;5097494;28;20299;-52
2020/12/07 10:45:38;;;;;;;17.15;10.35;;;;;;;;;;5085991;28;20256;-56
2020/12/07 10:48:05;;;;;;;13.90;8.65;;;;;;;;;;5078130;28;20199;-46
2020/12/07 10:50:43;;;;;;;10.43;6.28;;;;;;;;;;5076861;28;20218;-53
2020/12/07 10:53:15;;;;;;;8.85;6.80;;;;;;;;;;5077972;28;20248;-47
2020/12/07 10:55:42;;;;;;;9.55;6.50;;;;;;;;;;5078775;28;20207;-50
2020/12/07 10:58:16;;;;;;;9.20;6.07;;;;;;;;;;5096977;28;20215;-52
2020/12/07 11:00:51;;;;;;;9.75;6.05;;;;;;;;;;5092696;28;20191;-53
2020/12/07 11:03:20;;;;;;;8.27;5.78;;;;;;;;;;5096059;28;20242;-52
2020/12/07 11:05:56;;;;;;;12.77;6.57;;;;;;;;;;5096536;28;20235;-57
2020/12/07 11:08:31;;;;;;;10.02;6.97;;;;;;;;;;5097030;28;20209;-50
2020/12/07 11:10:58;;;;;;;9.95;6.70;;;;;;;;;;5094504;28;20219;-58
2020/12/07 11:13:55;;;;;;;10.25;6.78;;;;;;;;;;5096260;28;20256;-54
2020/12/07 11:16:28;;;;;;;13.40;6.50;;;;;;;;;;5085413;28;20197;-59
2020/12/07 11:19:13;;;;;;;8.55;6.38;;;;;;;;;;5092593;28;20260;-58
2020/12/07 11:21:56;;;;;;;8.07;5.38;;;;;;;;;;5092036;28;20242;-56
2020/12/07 11:24:45;;;;;;;10.18;6.63;;;;;;;;;;5080180;28;20200;-56
2020/12/07 11:27:24;;;;;;;8.38;6.35;;;;;;;;;;5092232;28;20184;-56
2020/12/07 11:30:01;;;;;;;12.85;7.05;;;;;;;;;;5091015;28;20219;-55
2020/12/07 11:32:58;;;;;;;11.63;5.80;;;;;;;;;;5089212;28;20212;-52
2020/12/07 11:35:32;;;;;;;8.38;6.70;;;;;;;;;;5084497;28;20203;-57
2020/12/07 11:38:11;;;;;;;8.65;6.88;;;;;;;;;;5090846;28;20486;-53
2020/12/07 11:41:22;;;;;;;9.02;5.80;;;;;;;;;;5091002;28;20209;-57
2020/12/07 11:44:26;;;;;;;10.85;6.93;;;;;;;;;;5092366;28;20680;-59
2020/12/07 11:47:17;;;;;;;10.07;6.25;;;;;;;;;;5089519;28;20615;-55
2020/12/07 11:52:56;;;;;;;12.30;6.20;;;;;;;;;;5092627;28;20211;-56
2020/12/07 11:55:37;;;;;;;12.13;7.80;;;;;;;;;;5093401;28;20256;-58
2020/12/07 11:58:05;;;;;;;9.45;7.15;;;;;;;;;;5092360;28;20224;-54
2020/12/07 12:00:37;;;;;;;8.57;6.15;;;;;;;;;;5093768;28;20238;-57
2020/12/07 12:03:06;;;;;;;12.10;8.27;;;;;;;;;;5091300;28;20283;-56
2020/12/07 12:06:12;;;;;;;8.27;6.75;;;;;;;;;;5088228;28;20269;-58
2020/12/07 12:09:05;;;;;;;10.88;7.53;;;;;;;;;;5011034;28;20247;-54
2020/12/07 12:12:07;;;;;;;9.38;7.28;;;;;;;;;;5077805;28;20230;-55
2020/12/07 12:14:44;;;;;;;11.95;7.80;;;;;;;;;;5092744;28;20201;-56
2020/12/07 12:17:40;;;;;;;13.50;8.45;;;;;;;;;;5085722;28;20210;-57
2020/12/07 12:20:08;;;;;;;12.40;7.57;;;;;;;;;;5074574;28;20205;-50
2020/12/07 12:22:58;;;;;;;16.83;11.73;;;;;;;;;;5072660;28;20230;-54
2020/12/07 12:25:38;;;;;;;15.30;9.98;;;;;;;;;;5072035;28;20372;-59
2020/12/07 12:31:19;;;;;;;13.85;8.48;;;;;;;;;;5071815;28;20185;-56
2020/12/07 12:34:03;;;;;;;15.57;9.05;;;;;;;;;;5074301;28;20409;-57
2020/12/07 12:36:49;;;;;;;13.98;9.65;;;;;;;;;;5067423;28;20262;-58
2020/12/07 12:39:40;;;;;;;12.02;8.65;;;;;;;;;;5088162;28;20271;-52
2020/12/07 12:42:08;;;;;;;12.80;7.65;;;;;;;;;;5087362;28;20223;-57
2020/12/07 12:44:37;;;;;;;10.80;7.80;;;;;;;;;;5093433;28;20196;-61
2020/12/07 12:47:06;;;;;;;11.45;8.68;;;;;;;;;;5073793;28;20190;-56
2020/12/07 12:49:39;;;;;;;11.10;7.85;;;;;;;;;;5073676;28;20264;-59
2020/12/07 12:52:05;;;;;;;14.45;8.93;;;;;;;;;;5071362;28;20207;-54
2020/12/07 12:54:43;;;;;;;12.10;7.80;;;;;;;;;;5074282;28;20218;-51
2020/12/07 12:57:26;;;;;;;11.82;8.57;;;;;;;;;;5092463;28;20236;-52
2020/12/07 12:59:58;;;;;;;14.25;9.20;;;;;;;;;;5093570;28;20235;-57
2020/12/07 13:02:35;;;;;;;12.77;7.65;;;;;;;;;;5089038;28;20226;-52
2020/12/07 13:05:16;;;;;;;13.23;8.52;;;;;;;;;;5092996;28;20204;-58
2020/12/07 13:08:08;;;;;;;11.85;8.05;;;;;;;;;;5086000;28;20218;-54
2020/12/07 13:10:35;;;;;;;16.17;9.73;;;;;;;;;;5072307;28;20222;-58
2020/12/07 13:13:02;;;;;;;15.18;8.95;;;;;;;;;;5073025;28;20208;-53
2020/12/07 13:15:34;;;;;;;15.40;8.88;;;;;;;;;;5080978;28;20209;-51
2020/12/07 13:18:10;;;;;;;14.45;9.75;;;;;;;;;;5093077;28;20219;-54
2020/12/07 13:20:57;;;;;;;13.98;7.95;;;;;;;;;;5090224;28;20205;-54
2020/12/07 13:23:47;;;;;;;12.90;8.45;;;;;;;;;;5094264;28;20198;-58
2020/12/07 13:26:15;;;;;;;13.50;8.57;;;;;;;;;;5094874;28;20216;-56
2020/12/07 13:28:42;;;;;;;14.23;9.02;;;;;;;;;;5094550;28;20228;-50
2020/12/07 13:31:29;;;;;;;12.25;8.38;;;;;;;;;;5094828;28;20211;-59
2020/12/07 13:33:59;;;;;;;12.60;8.73;;;;;;;;;;5094205;28;20206;-56
2020/12/07 13:36:27;;;;;;;12.15;8.88;;;;;;;;;;5094214;28;20207;-52
2020/12/07 13:38:59;;;;;;;13.98;8.80;;;;;;;;;;5093329;28;20242;-57
2020/12/07 13:41:32;;;;;;;12.57;9.60;;;;;;;;;;5081554;28;20304;-51
2020/12/07 13:44:01;;;;;;;15.65;8.85;;;;;;;;;;5094828;28;20217;-57
2020/12/07 13:46:37;;;;;;;20.25;9.60;;;;;;;;;;5095307;28;20185;-54
2020/12/07 13:49:05;;;;;;;13.88;8.00;;;;;;;;;;5094915;28;20865;-54
2020/12/07 13:51:32;;;;;;;13.73;8.63;;;;;;;;;;5095489;28;20297;-54
2020/12/07 13:54:10;;;;;;;15.50;9.25;;;;;;;;;;5098662;28;20211;-61
2020/12/07 13:56:43;;;;;;;16.88;10.75;;;;;;;;;;5098790;28;20210;-55
2020/12/07 13:59:10;;;;;;;13.57;10.63;;;;;;;;;;5097730;28;20214;-50
2020/12/07 14:01:38;;;;;;;12.82;8.70;;;;;;;;;;5097371;28;20291;-54
2020/12/07 14:04:14;;;;;;;13.63;8.75;;;;;;;;;;5097366;28;20183;-57
2020/12/07 14:07:20;;;;;;;13.60;8.77;;;;;;;;;;5097651;28;20210;-58
2020/12/07 14:09:51;;;;;;;15.00;8.65;;;;;;;;;;5093100;28;20221;-53
2020/12/07 14:12:30;;;;;;;12.25;8.60;;;;;;;;;;5070917;28;20207;-56
2020/12/07 14:15:00;;;;;;;13.82;8.70;;;;;;;;;;5073953;28;20208;-57
2020/12/07 14:17:37;;;;;;;12.02;8.18;;;;;;;;;;5090544;28;20216;-55
2020/12/07 14:20:14;;;;;;;17.95;9.65;;;;;;;;;;5097298;28;20211;-50
2020/12/07 14:31:55;;;;;;;12.38;8.27;;;;;;;;;;5098165;28;20194;-53
2020/12/07 14:40:31;;;;;;;15.70;9.10;;;;;;;;;;5032492;28;20209;-53
2020/12/07 14:42:59;;;;;;;12.02;8.25;;;;;;;;;;5074994;28;20263;-56
2020/12/07 14:45:29;;;;;;;13.15;7.53;;;;;;;;;;5089974;28;20189;-50
2020/12/07 14:47:58;;;;;;;19.95;9.23;;;;;;;;;;5077487;28;20201;-55
2020/12/07 14:50:29;;;;;;;15.23;9.38;;;;;;;;;;5084628;28;20251;-55
2020/12/07 14:53:04;;;;;;;18.67;11.32;;;;;;;;;;5097768;28;20194;-52
2020/12/07 14:55:36;;;;;;;17.75;10.90;;;;;;;;;;5090537;28;20192;-54
2020/12/07 15:06:55;;;;;;;11.13;7.95;;;;;;;;;;5020960;28;20502;-51
2020/12/07 15:12:32;;;;;;;10.38;6.85;;;;;;;;;;5093647;28;20219;-59
2020/12/07 15:15:05;;;;;;;7.75;6.05;;;;;;;;;;5096726;28;20200;-57
2020/12/07 15:17:48;;;;;;;17.20;6.95;;;;;;;;;;5096225;28;20236;-49
2020/12/07 15:20:17;;;;;;;9.00;6.45;;;;;;;;;;5096670;28;20213;-57
2020/12/07 15:22:44;;;;;;;9.70;5.88;;;;;;;;;;5096736;28;20204;-53
2020/12/07 15:25:14;;;;;;;10.02;6.60;;;;;;;;;;5096238;28;20202;-56
2020/12/07 15:27:45;;;;;;;8.60;5.72;;;;;;;;;;5096350;28;20221;-57
2020/12/07 15:30:13;;;;;;;7.47;4.80;;;;;;;;;;5095408;28;20227;-49
2020/12/07 15:32:53;;;;;;;9.02;6.25;;;;;;;;;;5082568;28;20190;-56
2020/12/07 15:35:27;;;;;;;7.38;5.13;;;;;;;;;;5095968;28;20259;-51
2020/12/07 15:38:06;;;;;;;9.27;5.60;;;;;;;;;;5096685;28;20203;-55
2020/12/07 15:40:35;;;;;;;11.20;5.53;;;;;;;;;;5094860;28;20281;-59
2020/12/07 15:43:02;;;;;;;6.82;4.53;;;;;;;;;;5055175;28;20251;-54
2020/12/07 15:45:31;;;;;;;7.90;4.78;;;;;;;;;;5035436;28;20226;-58
2020/12/07 15:48:11;;;;;;;8.80;5.57;;;;;;;;;;5036303;28;20254;-59
2020/12/07 15:50:38;;;;;;;8.25;4.80;;;;;;;;;;5055594;28;20201;-55
2020/12/07 15:53:05;;;;;;;11.57;6.60;;;;;;;;;;5055659;28;20195;-55
2020/12/07 15:58:38;;;;;;;9.80;6.20;;;;;;;;;;5046244;28;20185;-53
2020/12/07 16:01:05;;;;;;;9.75;6.45;;;;;;;;;;5055904;28;20206;-54
2020/12/07 16:03:42;;;;;;;8.98;5.68;;;;;;;;;;5049919;28;20297;-55
2020/12/07 16:06:13;;;;;;;9.13;6.07;;;;;;;;;;5054099;28;20205;-58
2020/12/07 16:08:40;;;;;;;10.73;6.20;;;;;;;;;;5048681;28;20259;-56
2020/12/07 16:11:33;;;;;;;11.15;6.13;;;;;;;;;;5059193;28;20205;-50
2020/12/07 16:14:00;;;;;;;10.13;7.50;;;;;;;;;;5049248;28;20207;-54
2020/12/07 16:16:27;;;;;;;9.50;6.50;;;;;;;;;;5049987;28;20209;-51